Aeroporto :
LOGIN :

Iscrizione | Disclaimer

   EN    FR    IT 

 










Sommario :    VFR   VFR Marginale   IFR   IFR Intensivo   IFR Molto Intensivo
Visibilità : 
Base nubi : 
>= 8 km
>= 3000ft
5 / 8 km
1000 / 3000 ft
1500m / 5 km
500 / 1000 ft
800 / 1500m
200 / 500 ft
< 800m
< 200 ft
Simboli :   Temporali  Nebbia  Neve Forte  Precipitazioni Forti  Vento > 20 kt
SIGMETs :   Varie  Temporali  Ghiacco  Turbolenza  Onda orograficha  Ceneri Vulcaniche






- Altitudine del aeroporto : 1106 ft


LFSO - Nancy / Ochey

ULTIMO METAR :
  • 200630Z AUTO 07003KT 0650 0600 R20/0750N FZFG OVC003 M02/M02 Q1015 BECMG 3000 BR VV///

METARs OBSOLETI :
  • 200600Z AUTO VRB03KT 0450 0400 R20/0450N FZFG VV/// M01/M02 Q1016
  • 200530Z AUTO 00000KT 0450 0400 R20/0450N FZFG VV/// M02/M02 Q1016
  • 200500Z AUTO 03005KT 0450 0400 R20/0450U FZFG VV/// M01/M02 Q1016
  • 200430Z AUTO VRB02KT 0350 0300 R20/0325N FZFG VV/// M02/M02 Q1016
  • 200400Z AUTO 02002KT 0300 0250 R20/0300N FZFG VV/// M01/M02 Q1016

TAF AMD TAF LFSO
Valido dal 20 a 06 ore il 21 a 03 ore UTC


200614Z 2006/2103 08005KT 0600 FZFG VV///
BECMG 2008/2010 3000 BR
BECMG 2010/2012 6000 NSW BKN008
BECMG 2015/2018 3000 BR OVC003
PROB40
TEMPO 2020/2103 0300 FG VV///



MetMap, La meteo Aeronautica in un colpo d'occhio ! - Copyright ORBIFLY Dicembre 2007 - Disclaimer

ORBIFLY MET'MAP TEAM :

Programmazione e sviluppo : Alexandra Zaïnal
Concezione e sviluppo : Baudouin d'Aumeries
Co-Programmazione e sviluppo : Marc-Olivier Méhu
Supporto tecnico e logistico : Manuel Goepfert
Aiuto per la traduzione : Arnaldo La Scala

Contatto : metmap@orbifly.com




FONTI E CREDITI :

   NOAA